Time;durP1;ratioP1;P1;durP2;ratioP2;P2;SDS_P1;SDS_P2;PMS_P1;PMS_P2;Temp;Humidity;BMP_temperature;BMP_pressure;BME280_temperature;BME280_humidity;BME280_pressure;Samples;Min_cycle;Max_cycle;Signal;HPM_P1;HPM_P2
2022/01/19 00:01:34;;;;;;;8.32;3.85;;;20.10;51.90;;;;;;4497180;31;20203;-68
2022/01/19 00:38:22;;;;;;;9.68;3.80;;;19.80;52.10;;;;;;4462829;32;20341;-80
2022/01/19 00:40:48;;;;;;;6.72;3.53;;;19.80;52.20;;;;;;4391707;32;20071;-63
2022/01/19 00:43:15;;;;;;;7.80;3.50;;;19.80;52.20;;;;;;4399604;32;20101;-63
2022/01/19 00:45:42;;;;;;;7.00;3.42;;;19.80;52.20;;;;;;4399650;32;20218;-63
2022/01/19 00:48:08;;;;;;;8.07;3.72;;;19.70;52.20;;;;;;4399697;32;20087;-63
2022/01/19 00:50:34;;;;;;;6.35;3.45;;;19.70;52.20;;;;;;4399184;32;20099;-62
2022/01/19 00:53:00;;;;;;;8.55;4.05;;;19.70;52.20;;;;;;4399515;32;20138;-63
2022/01/19 00:55:30;;;;;;;8.95;4.28;;;19.70;52.20;;;;;;4399946;32;20115;-63
2022/01/19 00:57:56;;;;;;;7.60;3.80;;;19.70;52.30;;;;;;4399940;32;20082;-63
2022/01/19 01:00:25;;;;;;;6.40;3.47;;;19.70;52.30;;;;;;4399664;32;20202;-63
2022/01/19 01:02:51;;;;;;;7.53;3.58;;;19.70;52.30;;;;;;4399924;32;20131;-63
2022/01/19 01:05:18;;;;;;;8.27;3.85;;;19.70;52.30;;;;;;4399354;32;20094;-63
2022/01/19 01:07:44;;;;;;;6.93;3.67;;;19.60;53.20;;;;;;4399857;32;20097;-63
2022/01/19 01:10:13;;;;;;;7.90;3.67;;;19.60;52.30;;;;;;4399622;32;20122;-63
2022/01/19 01:12:51;;;;;;;8.43;3.60;;;19.60;52.30;;;;;;4399275;32;20086;-63
2022/01/19 01:15:49;;;;;;;8.63;4.00;;;19.60;52.30;;;;;;4399244;32;20082;-63
2022/01/19 01:18:18;;;;;;;6.50;3.85;;;19.60;52.30;;;;;;4399738;32;20095;-63
2022/01/19 01:20:46;;;;;;;7.53;3.90;;;19.60;52.30;;;;;;4399568;32;20095;-63
2022/01/19 01:23:12;;;;;;;7.07;3.75;;;19.50;52.30;;;;;;4399556;32;20413;-63
2022/01/19 01:25:39;;;;;;;7.22;3.70;;;19.50;52.30;;;;;;4399485;32;20421;-63
2022/01/19 01:28:06;;;;;;;5.95;3.80;;;19.50;52.30;;;;;;4399591;32;20093;-63
2022/01/19 01:30:32;;;;;;;7.20;3.75;;;19.50;52.30;;;;;;4398613;32;20059;-63
2022/01/19 01:32:58;;;;;;;8.50;4.05;;;19.50;52.30;;;;;;4399680;32;20122;-63
2022/01/19 01:35:24;;;;;;;6.88;3.85;;;19.50;52.30;;;;;;4398861;32;20228;-63
2022/01/19 01:37:50;;;;;;;7.38;3.80;;;19.50;52.30;;;;;;4399466;32;20111;-63
2022/01/19 01:40:16;;;;;;;5.22;3.40;;;19.50;52.30;;;;;;4399150;32;20173;-63
2022/01/19 01:42:56;;;;;;;8.52;3.88;;;19.50;52.20;;;;;;4399196;32;20083;-63
2022/01/19 01:45:34;;;;;;;7.75;4.25;;;19.40;52.20;;;;;;4398692;32;20181;-63
2022/01/19 01:48:06;;;;;;;6.05;3.38;;;19.40;52.20;;;;;;4399412;32;20236;-63
2022/01/19 01:53:26;;;;;;;9.05;4.05;;;19.40;52.30;;;;;;4399394;32;20229;-63
2022/01/19 01:56:08;;;;;;;8.52;4.18;;;19.40;52.20;;;;;;4399475;32;20209;-63
2022/01/19 01:58:42;;;;;;;7.18;4.05;;;19.40;52.20;;;;;;4398851;32;20237;-63
2022/01/19 02:01:09;;;;;;;6.38;3.67;;;19.30;52.20;;;;;;4399194;32;20166;-63
2022/01/19 02:03:39;;;;;;;5.72;3.63;;;19.30;52.20;;;;;;4398618;32;20083;-63
2022/01/19 02:09:10;;;;;;;6.78;4.18;;;19.30;52.20;;;;;;4398707;32;20086;-63
2022/01/19 02:23:16;;;;;;;5.53;3.65;;;19.20;52.10;;;;;;4399136;32;20079;-63
2022/01/19 02:25:44;;;;;;;7.05;3.75;;;19.20;52.20;;;;;;4398862;32;20067;-63
2022/01/19 02:41:40;;;;;;;7.20;4.00;;;19.10;52.10;;;;;;4386635;32;20641;-63
2022/01/19 02:44:09;;;;;;;5.78;3.75;;;19.10;52.20;;;;;;4398662;32;20102;-63
2022/01/19 02:49:14;;;;;;;6.35;3.92;;;19.10;52.10;;;;;;4398177;32;20082;-63
2022/01/19 02:49:40;;;;;;;6.82;3.75;;;19.10;52.10;;;;;;4398179;32;20191;-63
2022/01/19 02:52:06;;;;;;;6.43;3.55;;;19.10;52.10;;;;;;4398477;32;20506;-63
2022/01/19 02:54:33;;;;;;;7.57;3.55;;;19.10;52.10;;;;;;4398288;32;20201;-63
2022/01/19 02:57:01;;;;;;;5.43;3.63;;;19.10;52.10;;;;;;4398587;32;20067;-63
2022/01/19 03:10:29;;;;;;;6.57;3.70;;;19.00;52.00;;;;;;4398504;32;20090;-63
2022/01/19 03:12:54;;;;;;;6.20;3.28;;;19.00;52.00;;;;;;4398051;32;20071;-63
2022/01/19 03:15:20;;;;;;;5.95;3.70;;;19.00;52.00;;;;;;4398025;32;20119;-63
2022/01/19 03:17:46;;;;;;;7.32;3.90;;;19.00;52.00;;;;;;4398039;32;20161;-63
2022/01/19 03:20:13;;;;;;;6.43;3.60;;;19.00;52.00;;;;;;4398050;32;20177;-63
2022/01/19 03:22:51;;;;;;;5.80;3.60;;;19.00;52.00;;;;;;4398118;32;20098;-63
2022/01/19 03:25:17;;;;;;;6.75;3.67;;;18.90;51.90;;;;;;4398354;32;20098;-63
2022/01/19 03:27:46;;;;;;;6.28;3.53;;;18.90;51.90;;;;;;4396677;32;20135;-63
2022/01/19 03:30:13;;;;;;;7.47;3.85;;;18.90;51.90;;;;;;4383947;32;20122;-63
2022/01/19 03:32:39;;;;;;;6.40;3.33;;;18.90;52.00;;;;;;4397088;32;20213;-63
2022/01/19 03:35:06;;;;;;;6.72;3.45;;;18.90;52.00;;;;;;4396959;32;20421;-63
2022/01/19 03:37:32;;;;;;;6.85;3.50;;;18.90;51.90;;;;;;4397007;32;20063;-63
2022/01/19 03:39:58;;;;;;;6.88;3.75;;;18.90;51.90;;;;;;4370392;32;20528;-63
2022/01/19 03:42:24;;;;;;;7.43;3.40;;;18.90;52.00;;;;;;4397393;32;20122;-63
2022/01/19 03:44:50;;;;;;;5.75;3.60;;;18.90;52.00;;;;;;4396965;32;20075;-63
2022/01/19 03:47:17;;;;;;;7.13;3.80;;;18.90;51.90;;;;;;4397302;32;20594;-63
2022/01/19 03:49:44;;;;;;;4.75;3.38;;;18.90;51.90;;;;;;4397043;32;20406;-63
2022/01/19 03:52:10;;;;;;;7.22;3.80;;;18.80;51.90;;;;;;4394318;32;20089;-63
2022/01/19 03:54:41;;;;;;;6.78;3.55;;;18.90;51.90;;;;;;4397136;32;20089;-63
2022/01/19 03:57:07;;;;;;;5.72;3.33;;;18.80;51.90;;;;;;4397204;32;20131;-63
2022/01/19 03:59:33;;;;;;;7.78;3.78;;;18.80;51.90;;;;;;4397021;32;20572;-63
2022/01/19 04:01:59;;;;;;;5.65;3.13;;;18.80;51.90;;;;;;4396811;32;20207;-63
2022/01/19 04:09:17;;;;;;;5.47;3.20;;;18.80;51.90;;;;;;4396964;32;20059;-63
2022/01/19 04:11:43;;;;;;;6.57;3.20;;;18.80;51.90;;;;;;4397062;32;20082;-63
2022/01/19 04:16:35;;;;;;;6.93;3.40;;;18.80;51.90;;;;;;4399607;32;20087;-63
2022/01/19 04:19:23;;;;;;;5.35;3.15;;;18.80;51.90;;;;;;4399443;32;20174;-63
2022/01/19 04:21:51;;;;;;;5.22;3.10;;;18.70;51.90;;;;;;4399792;32;20078;-63
2022/01/19 04:24:18;;;;;;;5.28;2.80;;;18.70;52.00;;;;;;4400180;32;20089;-63
2022/01/19 04:26:44;;;;;;;5.10;2.90;;;18.70;52.00;;;;;;4399280;32;20087;-63
2022/01/19 04:29:10;;;;;;;4.72;3.17;;;18.70;52.00;;;;;;4399545;32;20311;-63
2022/01/19 04:31:36;;;;;;;7.68;3.38;;;18.70;52.00;;;;;;4399402;32;20070;-63
2022/01/19 04:34:05;;;;;;;4.97;2.90;;;18.70;52.00;;;;;;4399273;32;20184;-63
2022/01/19 04:36:47;;;;;;;6.18;3.00;;;18.70;52.00;;;;;;4399425;32;20130;-63
2022/01/19 04:48:08;;;;;;;5.40;3.10;;;18.60;52.00;;;;;;4392212;32;20265;-63
2022/01/19 05:06:42;;;;;;;5.65;3.20;;;18.60;52.10;;;;;;4399643;32;20087;-63
2022/01/19 05:09:24;;;;;;;5.35;3.47;;;18.60;52.10;;;;;;4399888;32;20087;-63
2022/01/19 05:14:34;;;;;;;5.75;3.55;;;18.60;52.00;;;;;;4399137;32;20099;-63
2022/01/19 05:16:59;;;;;;;6.03;3.65;;;18.60;52.10;;;;;;4399637;32;20131;-63
2022/01/19 05:19:25;;;;;;;7.30;3.30;;;18.60;52.10;;;;;;4399641;32;20083;-63
2022/01/19 05:21:51;;;;;;;5.32;3.47;;;18.60;52.10;;;;;;4399826;32;20419;-63
2022/01/19 05:24:17;;;;;;;5.13;3.08;;;18.60;52.10;;;;;;4399359;32;20103;-63
2022/01/19 05:26:44;;;;;;;7.57;3.45;;;18.50;52.00;;;;;;4399786;32;20134;-63
2022/01/19 05:29:10;;;;;;;7.50;3.10;;;18.50;52.00;;;;;;4399208;32;20074;-63
2022/01/19 05:31:36;;;;;;;5.70;3.10;;;18.50;52.00;;;;;;4399193;32;20252;-63
2022/01/19 05:34:03;;;;;;;5.75;3.35;;;18.50;52.10;;;;;;4399529;32;20166;-63
2022/01/19 05:36:29;;;;;;;6.35;3.33;;;18.50;52.10;;;;;;4398968;32;20174;-63
2022/01/19 05:38:54;;;;;;;6.40;3.60;;;18.50;52.10;;;;;;4399007;32;20090;-63
2022/01/19 05:41:21;;;;;;;5.95;3.30;;;18.50;52.10;;;;;;4385521;32;20060;-63
2022/01/19 05:43:47;;;;;;;6.50;2.97;;;18.50;52.20;;;;;;4399589;32;20225;-63
2022/01/19 05:46:13;;;;;;;5.68;3.25;;;18.50;52.10;;;;;;4398881;32;20098;-63
2022/01/19 05:48:39;;;;;;;5.35;3.42;;;18.50;52.10;;;;;;4399410;32;20071;-63
2022/01/19 05:51:06;;;;;;;6.45;3.75;;;18.50;52.10;;;;;;4398997;32;20098;-63
2022/01/19 05:53:32;;;;;;;4.70;3.08;;;18.50;52.10;;;;;;4399174;32;20089;-63
2022/01/19 05:55:58;;;;;;;4.93;3.17;;;18.50;52.10;;;;;;4398549;32;20557;-63
2022/01/19 05:58:24;;;;;;;8.43;3.28;;;18.50;52.10;;;;;;4399097;32;20059;-63
2022/01/19 06:00:50;;;;;;;5.13;2.90;;;18.40;52.10;;;;;;4399028;32;20059;-63
2022/01/19 06:03:17;;;;;;;6.97;3.40;;;18.40;52.10;;;;;;4398612;32;20402;-63
2022/01/19 06:05:43;;;;;;;5.78;3.25;;;18.40;52.20;;;;;;4399032;32;20099;-63
2022/01/19 06:08:39;;;;;;;5.78;3.20;;;18.40;52.20;;;;;;4398522;32;20506;-63
2022/01/19 06:11:04;;;;;;;4.93;3.10;;;18.40;52.10;;;;;;4398358;32;20075;-63
2022/01/19 06:13:30;;;;;;;5.68;3.30;;;18.40;52.20;;;;;;4398617;32;20063;-63
2022/01/19 06:15:56;;;;;;;4.85;3.17;;;18.40;52.20;;;;;;4398637;32;20079;-63
2022/01/19 06:18:21;;;;;;;6.00;3.20;;;18.40;52.20;;;;;;4398625;32;20101;-63
2022/01/19 06:20:47;;;;;;;5.65;3.38;;;18.40;52.20;;;;;;4398879;32;20082;-63
2022/01/19 06:23:14;;;;;;;5.72;3.35;;;18.40;52.30;;;;;;4398278;32;20126;-63
2022/01/19 06:25:40;;;;;;;5.43;3.35;;;18.40;52.20;;;;;;4398777;32;20133;-63
2022/01/19 06:28:06;;;;;;;5.95;3.35;;;18.40;52.30;;;;;;4398592;32;20196;-63
2022/01/19 06:30:32;;;;;;;4.93;3.17;;;18.30;52.30;;;;;;4398725;32;20217;-63
2022/01/19 06:32:58;;;;;;;4.97;3.15;;;18.30;52.30;;;;;;4398631;32;20097;-63
2022/01/19 06:35:24;;;;;;;6.57;3.30;;;18.30;52.30;;;;;;4397774;32;20067;-63
2022/01/19 06:37:50;;;;;;;4.57;2.83;;;18.30;53.30;;;;;;4398614;32;20085;-63
2022/01/19 06:40:18;;;;;;;5.30;3.25;;;18.30;52.30;;;;;;4398195;32;20538;-63
2022/01/19 06:42:45;;;;;;;5.32;3.58;;;18.30;52.40;;;;;;4398218;32;20087;-63
2022/01/19 06:45:12;;;;;;;4.53;3.17;;;18.30;52.40;;;;;;4384583;32;20079;-63
2022/01/19 06:47:38;;;;;;;5.85;3.20;;;18.30;52.40;;;;;;4398712;32;20588;-63
2022/01/19 06:50:06;;;;;;;7.10;3.28;;;18.30;52.40;;;;;;4398398;32;20083;-63
2022/01/19 06:52:33;;;;;;;5.53;3.28;;;18.30;52.40;;;;;;4398661;32;20097;-63
2022/01/19 06:54:59;;;;;;;5.55;3.30;;;18.30;52.40;;;;;;4398035;32;20071;-63
2022/01/19 06:57:25;;;;;;;6.00;2.90;;;18.30;52.40;;;;;;4398423;32;20339;-63
2022/01/19 06:59:51;;;;;;;6.45;3.50;;;18.30;52.40;;;;;;4398414;32;20129;-63
2022/01/19 07:02:20;;;;;;;5.18;3.25;;;18.20;52.40;;;;;;4384277;32;20099;-63
2022/01/19 07:04:50;;;;;;;5.03;2.80;;;18.30;52.40;;;;;;4398387;32;20067;-63
2022/01/19 07:07:17;;;;;;;4.63;3.08;;;18.20;52.40;;;;;;4398059;32;20126;-63
2022/01/19 07:09:43;;;;;;;5.18;3.20;;;18.20;52.40;;;;;;4398381;32;20086;-63
2022/01/19 07:12:10;;;;;;;4.57;3.22;;;18.20;52.40;;;;;;4398511;32;20083;-63
2022/01/19 07:14:36;;;;;;;5.47;3.40;;;18.20;52.40;;;;;;4398326;32;20534;-63
2022/01/19 07:17:02;;;;;;;5.38;3.05;;;18.20;52.40;;;;;;4398356;32;20248;-63
2022/01/19 07:19:28;;;;;;;4.82;3.17;;;18.20;52.40;;;;;;4398036;32;20082;-63
2022/01/19 07:21:54;;;;;;;4.28;3.08;;;18.20;52.40;;;;;;4398297;32;20071;-63
2022/01/19 07:24:20;;;;;;;4.28;3.20;;;18.20;52.40;;;;;;4397741;32;20103;-63
2022/01/19 07:26:46;;;;;;;4.55;3.00;;;18.20;52.40;;;;;;4398395;32;20083;-63
2022/01/19 07:29:13;;;;;;;5.28;3.30;;;18.20;52.40;;;;;;4397881;32;20099;-63
2022/01/19 07:31:40;;;;;;;5.35;3.38;;;18.20;52.50;;;;;;4398167;32;20131;-63
2022/01/19 07:34:06;;;;;;;4.82;2.95;;;18.10;52.40;;;;;;4398353;32;20173;-63
2022/01/19 07:36:32;;;;;;;4.78;2.90;;;18.10;52.40;;;;;;4397846;32;20110;-62
2022/01/19 07:38:58;;;;;;;5.78;2.90;;;18.10;52.50;;;;;;4397719;32;20155;-63
2022/01/19 07:41:24;;;;;;;4.50;2.92;;;18.10;52.50;;;;;;4397580;32;20075;-63
2022/01/19 07:43:50;;;;;;;4.85;2.90;;;18.10;52.50;;;;;;4398072;32;20418;-63
2022/01/19 07:46:17;;;;;;;4.15;2.80;;;18.10;52.50;;;;;;4398491;32;20569;-63
2022/01/19 07:48:43;;;;;;;5.13;3.08;;;18.10;52.60;;;;;;4400932;32;20189;-63
2022/01/19 07:51:09;;;;;;;6.22;3.33;;;18.10;52.60;;;;;;4387404;32;20089;-63
2022/01/19 07:53:36;;;;;;;4.57;3.08;;;18.10;52.60;;;;;;4401034;32;20224;-63
2022/01/19 07:56:05;;;;;;;4.80;3.03;;;18.10;52.60;;;;;;4400894;32;20412;-63
2022/01/19 07:58:31;;;;;;;4.90;3.10;;;18.10;52.60;;;;;;4400616;32;20759;-63
2022/01/19 08:00:57;;;;;;;4.63;3.30;;;18.10;52.60;;;;;;4400854;32;20103;-63
2022/01/19 08:03:23;;;;;;;4.13;2.88;;;18.10;52.60;;;;;;4400591;32;20067;-63
2022/01/19 08:05:49;;;;;;;4.20;2.78;;;18.10;52.50;;;;;;4400697;32;20141;-63
2022/01/19 08:08:15;;;;;;;6.13;3.00;;;18.10;52.60;;;;;;4400549;32;20093;-63
2022/01/19 08:10:42;;;;;;;5.20;3.20;;;18.00;52.50;;;;;;4400711;32;20521;-63
2022/01/19 08:13:14;;;;;;;5.38;3.97;;;18.00;52.50;;;;;;4400623;32;20079;-63
2022/01/19 08:15:40;;;;;;;5.10;3.20;;;18.00;52.50;;;;;;4400446;32;20071;-63
2022/01/19 08:18:06;;;;;;;5.50;3.22;;;18.00;52.50;;;;;;4400589;32;20229;-63
2022/01/19 08:20:32;;;;;;;4.30;2.92;;;18.00;52.50;;;;;;4400061;32;20256;-63
2022/01/19 08:22:58;;;;;;;5.40;3.40;;;18.00;52.50;;;;;;4400771;32;20091;-63
2022/01/19 08:25:23;;;;;;;4.35;2.95;;;18.00;52.50;;;;;;4400444;32;20063;-63
2022/01/19 08:27:49;;;;;;;6.07;3.40;;;18.00;52.50;;;;;;4400476;32;20206;-63
2022/01/19 08:30:16;;;;;;;5.32;3.65;;;18.00;53.40;;;;;;4400597;32;20082;-63
2022/01/19 08:32:42;;;;;;;5.75;3.63;;;18.00;52.50;;;;;;4400296;32;20121;-63
2022/01/19 08:35:09;;;;;;;7.78;4.93;;;17.90;52.50;;;;;;4400569;32;20432;-63
2022/01/19 08:37:36;;;;;;;12.50;7.75;;;17.90;52.30;;;;;;4400076;32;20208;-63
2022/01/19 08:40:05;;;;;;;15.60;11.40;;;17.90;51.50;;;;;;4400024;32;20272;-63
2022/01/19 08:42:33;;;;;;;19.33;11.48;;;17.90;50.70;;;;;;4400007;32;20099;-63
2022/01/19 08:45:05;;;;;;;13.82;10.13;;;17.90;50.20;;;;;;4400139;32;20134;-63
2022/01/19 08:47:32;;;;;;;17.90;9.40;;;17.90;50.40;;;;;;4399936;32;20189;-63
2022/01/19 08:49:59;;;;;;;13.70;8.27;;;17.80;50.80;;;;;;4400180;32;20071;-63
2022/01/19 08:52:24;;;;;;;12.13;8.05;;;17.80;51.30;;;;;;4400022;32;20149;-63
2022/01/19 08:54:51;;;;;;;13.55;8.32;;;17.80;51.50;;;;;;4399724;32;20632;-62
2022/01/19 08:57:18;;;;;;;15.60;8.35;;;17.80;51.70;;;;;;4398570;32;20150;-63
2022/01/19 08:59:44;;;;;;;13.43;7.43;;;17.80;51.70;;;;;;4394636;32;20102;-63
2022/01/19 09:02:10;;;;;;;12.95;7.72;;;17.80;51.70;;;;;;4383550;32;20403;-63
2022/01/19 09:04:37;;;;;;;13.55;7.38;;;17.80;51.60;;;;;;4383269;32;20205;-63
2022/01/19 09:07:03;;;;;;;13.45;7.05;;;17.80;51.70;;;;;;4382689;32;20098;-63
2022/01/19 09:09:29;;;;;;;12.27;6.82;;;17.80;51.70;;;;;;4391777;32;20089;-63
2022/01/19 09:11:55;;;;;;;11.77;6.55;;;17.90;51.80;;;;;;4384807;32;20076;-63
2022/01/19 09:14:21;;;;;;;17.85;6.70;;;17.90;51.80;;;;;;4384163;32;20067;-63
2022/01/19 09:16:49;;;;;;;12.65;5.47;;;18.00;51.70;;;;;;4384624;32;20125;-63
2022/01/19 09:19:17;;;;;;;13.32;5.20;;;18.10;51.70;;;;;;4371351;32;20660;-62
2022/01/19 09:21:43;;;;;;;10.82;5.10;;;18.10;51.50;;;;;;4384457;32;20099;-63
2022/01/19 09:24:11;;;;;;;17.33;4.60;;;18.20;51.30;;;;;;4384398;32;20075;-63
2022/01/19 09:26:38;;;;;;;9.70;4.80;;;18.30;51.10;;;;;;4397754;32;20094;-62
2022/01/19 09:29:05;;;;;;;8.35;4.50;;;18.50;50.80;;;;;;4399340;32;20089;-63
2022/01/19 09:31:33;;;;;;;10.27;4.30;;;18.60;51.50;;;;;;4399425;32;20078;-63
2022/01/19 09:34:09;;;;;;;8.60;3.85;;;18.80;50.30;;;;;;4399559;32;20103;-63
2022/01/19 09:36:44;;;;;;;10.43;4.70;;;18.90;50.20;;;;;;4398102;32;20076;-63
2022/01/19 09:39:11;;;;;;;10.70;5.07;;;19.00;50.10;;;;;;4393226;32;20515;-63
2022/01/19 09:41:37;;;;;;;12.45;4.85;;;19.20;50.00;;;;;;4383082;32;20075;-63
2022/01/19 09:44:04;;;;;;;10.88;4.15;;;19.30;49.80;;;;;;4383125;32;20198;-63
2022/01/19 09:46:30;;;;;;;10.52;4.25;;;19.40;49.60;;;;;;4383595;32;20086;-63
2022/01/19 09:48:58;;;;;;;8.90;4.20;;;19.50;49.30;;;;;;4383295;32;20063;-63
2022/01/19 09:51:24;;;;;;;9.68;3.95;;;19.70;49.20;;;;;;4396347;32;20268;-62
2022/01/19 09:53:50;;;;;;;9.68;3.70;;;19.80;49.10;;;;;;4398735;32;20103;-63
2022/01/19 09:56:19;;;;;;;9.00;3.38;;;19.90;48.90;;;;;;4398515;32;20157;-63
2022/01/19 09:58:45;;;;;;;11.52;3.53;;;20.00;48.70;;;;;;4374732;32;20075;-62
2022/01/19 10:01:15;;;;;;;8.80;3.63;;;20.10;48.60;;;;;;4384393;32;20573;-63
2022/01/19 10:03:41;;;;;;;7.82;3.30;;;20.20;48.50;;;;;;4397901;32;20094;-62
2022/01/19 10:06:09;;;;;;;7.53;3.30;;;20.30;48.40;;;;;;4398612;32;20514;-63
2022/01/19 10:08:42;;;;;;;7.68;3.00;;;20.40;48.20;;;;;;4397999;32;20102;-63
2022/01/19 10:11:16;;;;;;;11.27;3.47;;;20.50;48.00;;;;;;4398234;32;20220;-63
2022/01/19 10:19:21;;;;;;;10.15;2.92;;;20.70;47.40;;;;;;4398313;32;20212;-62
2022/01/19 10:22:22;;;;;;;13.73;2.92;;;20.80;47.30;;;;;;4397776;32;20193;-63
2022/01/19 10:24:53;;;;;;;7.53;2.92;;;20.90;47.30;;;;;;4397676;32;20142;-61
2022/01/19 10:27:34;;;;;;;8.70;2.75;;;21.00;47.10;;;;;;4398138;32;20079;-63
2022/01/19 10:30:02;;;;;;;19.25;3.17;;;21.10;47.00;;;;;;4378012;32;20421;-63
2022/01/19 10:32:30;;;;;;;5.90;2.78;;;21.10;46.90;;;;;;4397502;32;20075;-63
2022/01/19 10:34:57;;;;;;;4.47;2.72;;;21.20;46.80;;;;;;4397466;32;20228;-63
2022/01/19 10:37:24;;;;;;;8.45;2.97;;;21.20;46.70;;;;;;4397258;32;20173;-63
2022/01/19 10:39:54;;;;;;;6.38;2.50;;;21.30;46.80;;;;;;4397031;32;20201;-63
2022/01/19 10:42:22;;;;;;;5.38;2.60;;;21.30;46.70;;;;;;4397607;32;20514;-63
2022/01/19 10:45:09;;;;;;;8.18;2.50;;;21.40;46.70;;;;;;4383246;32;20075;-63
2022/01/19 10:47:38;;;;;;;5.90;2.70;;;21.40;46.70;;;;;;4398091;32;20178;-63
2022/01/19 10:50:04;;;;;;;6.28;2.85;;;21.50;46.60;;;;;;4398477;32;20091;-64
2022/01/19 10:52:39;;;;;;;6.60;2.42;;;21.50;46.50;;;;;;4398730;32;20118;-64
2022/01/19 10:55:09;;;;;;;5.10;2.97;;;21.60;46.60;;;;;;4398636;32;20130;-63
2022/01/19 10:57:38;;;;;;;8.45;4.57;;;21.50;46.60;;;;;;4398666;32;20159;-63
2022/01/19 11:00:17;;;;;;;9.77;5.15;;;21.50;46.50;;;;;;4397937;32;20094;-64
2022/01/19 11:02:44;;;;;;;11.98;6.20;;;21.40;46.40;;;;;;4398141;32;20506;-64
2022/01/19 11:05:11;;;;;;;12.80;6.15;;;21.30;46.40;;;;;;4398562;32;20075;-63
2022/01/19 11:07:37;;;;;;;9.85;5.57;;;21.20;46.40;;;;;;4397535;32;20091;-63
2022/01/19 11:10:18;;;;;;;15.85;5.72;;;21.10;46.60;;;;;;4397404;32;20226;-63
2022/01/19 11:12:49;;;;;;;12.05;5.07;;;21.00;46.80;;;;;;4397254;32;20078;-64
2022/01/19 11:15:19;;;;;;;7.03;4.47;;;20.80;48.00;;;;;;4397659;32;20099;-63
2022/01/19 11:17:49;;;;;;;10.30;5.45;;;20.70;47.30;;;;;;4397533;32;20205;-63
2022/01/19 11:20:18;;;;;;;11.75;5.88;;;20.60;47.50;;;;;;4397281;32;20081;-63
2022/01/19 11:22:58;;;;;;;11.85;5.60;;;20.50;47.70;;;;;;4400237;32;20221;-63
2022/01/19 11:25:49;;;;;;;13.95;5.60;;;20.40;47.80;;;;;;4400698;32;20406;-63
2022/01/19 11:28:33;;;;;;;13.77;5.65;;;20.30;48.00;;;;;;4400364;32;20086;-63
2022/01/19 11:31:08;;;;;;;13.80;6.30;;;20.20;48.30;;;;;;4385438;32;20078;-63
2022/01/19 11:33:41;;;;;;;13.38;5.35;;;20.20;48.60;;;;;;4387328;32;20713;-63
2022/01/19 11:36:18;;;;;;;12.82;5.78;;;20.10;48.80;;;;;;4385371;32;20518;-63
2022/01/19 11:38:46;;;;;;;10.73;5.07;;;20.00;48.90;;;;;;4385358;32;20131;-64
2022/01/19 11:41:15;;;;;;;15.95;5.30;;;20.00;49.20;;;;;;4385408;32;20115;-63
2022/01/19 11:43:52;;;;;;;10.00;5.05;;;19.90;49.40;;;;;;4384893;32;20522;-64
2022/01/19 11:46:39;;;;;;;18.00;5.88;;;19.90;49.50;;;;;;4385178;32;20075;-63
2022/01/19 11:49:08;;;;;;;11.00;5.13;;;19.80;49.50;;;;;;4385847;32;20701;-63
2022/01/19 11:51:40;;;;;;;14.20;5.32;;;19.80;49.70;;;;;;4385643;32;20173;-63
2022/01/19 11:54:21;;;;;;;11.45;5.80;;;19.70;49.80;;;;;;4385554;32;20269;-62
2022/01/19 11:56:59;;;;;;;9.73;5.75;;;19.60;50.80;;;;;;4385562;32;20079;-63
2022/01/19 11:59:50;;;;;;;11.18;5.15;;;19.60;50.00;;;;;;4385821;32;20093;-63
2022/01/19 12:02:26;;;;;;;15.00;4.93;;;19.60;50.20;;;;;;4385157;32;20657;-63
2022/01/19 12:05:13;;;;;;;10.35;5.18;;;19.50;50.30;;;;;;4385697;32;20135;-63
2022/01/19 12:07:53;;;;;;;14.98;6.90;;;19.40;50.40;;;;;;4385784;32;20072;-63
2022/01/19 12:10:30;;;;;;;17.90;8.25;;;19.40;50.50;;;;;;4385681;32;20071;-60
2022/01/19 12:16:09;;;;;;;27.88;10.30;;;19.30;50.00;;;;;;4385365;32;20158;-63
2022/01/19 12:19:08;;;;;;;19.63;10.43;;;19.30;50.10;;;;;;4385627;32;20072;-63
2022/01/19 12:21:34;;;;;;;21.70;9.88;;;19.20;49.20;;;;;;4359749;32;20114;-64
2022/01/19 12:24:15;;;;;;;21.77;11.13;;;19.20;49.60;;;;;;4385086;32;20552;-64
2022/01/19 12:26:50;;;;;;;23.45;9.85;;;19.20;49.30;;;;;;4385257;32;20068;-63
2022/01/19 12:29:36;;;;;;;17.98;9.68;;;19.10;49.50;;;;;;4384610;32;20075;-63
2022/01/19 12:32:16;;;;;;;26.13;9.85;;;19.10;49.20;;;;;;4383827;32;20102;-63
2022/01/19 12:34:44;;;;;;;20.77;8.75;;;19.10;49.40;;;;;;4384323;32;20174;-63
2022/01/19 12:37:13;;;;;;;24.08;9.35;;;19.10;49.60;;;;;;4384157;32;20103;-63
2022/01/19 12:39:45;;;;;;;30.75;9.75;;;19.10;49.80;;;;;;4384134;32;20159;-63
2022/01/19 12:42:16;;;;;;;24.25;9.13;;;19.10;49.80;;;;;;4384597;32;20423;-63
2022/01/19 12:44:53;;;;;;;19.73;8.27;;;19.00;49.80;;;;;;4385518;32;20103;-63
2022/01/19 12:47:25;;;;;;;19.15;8.73;;;19.00;49.80;;;;;;4384916;32;20089;-63
2022/01/19 12:49:57;;;;;;;22.20;8.82;;;19.00;50.00;;;;;;4384693;32;20091;-63
2022/01/19 12:52:26;;;;;;;24.15;8.38;;;19.00;50.10;;;;;;4385093;32;20079;-63
2022/01/19 12:54:54;;;;;;;15.63;8.15;;;18.90;50.20;;;;;;4384956;32;20114;-64
2022/01/19 12:57:20;;;;;;;21.17;8.32;;;18.90;50.20;;;;;;4384904;32;20177;-64
2022/01/19 12:59:50;;;;;;;19.25;8.57;;;18.90;50.30;;;;;;4384959;32;20403;-64
2022/01/19 13:02:20;;;;;;;12.55;7.20;;;18.90;50.40;;;;;;4394247;32;20067;-63
2022/01/19 13:04:48;;;;;;;16.30;7.55;;;18.80;50.40;;;;;;4399713;32;20657;-63
2022/01/19 13:07:26;;;;;;;15.10;7.68;;;18.80;50.50;;;;;;4392258;32;20079;-63
2022/01/19 13:13:06;;;;;;;16.10;7.70;;;18.80;50.80;;;;;;4395267;32;20071;-63
2022/01/19 13:15:48;;;;;;;13.32;7.07;;;18.80;50.90;;;;;;4399309;32;20181;-63
2022/01/19 13:18:28;;;;;;;15.57;7.65;;;18.70;50.90;;;;;;4398928;32;20082;-63
2022/01/19 13:20:57;;;;;;;14.75;7.53;;;18.70;51.10;;;;;;4399571;32;20086;-63
2022/01/19 13:23:24;;;;;;;17.33;7.10;;;18.70;51.00;;;;;;4388560;32;20122;-63
2022/01/19 13:26:00;;;;;;;14.48;6.97;;;18.70;51.00;;;;;;4399440;32;20282;-63
2022/01/19 13:28:32;;;;;;;14.27;6.95;;;18.70;51.00;;;;;;4399775;32;20079;-63
2022/01/19 13:31:15;;;;;;;10.98;6.70;;;18.70;51.00;;;;;;4399270;32;20067;-64
2022/01/19 13:33:51;;;;;;;13.27;6.22;;;18.60;50.90;;;;;;4399746;32;20071;-63
2022/01/19 13:36:16;;;;;;;15.52;6.53;;;18.60;51.00;;;;;;4398044;32;20101;-64
2022/01/19 13:38:51;;;;;;;12.88;7.22;;;18.60;50.90;;;;;;4399494;32;20158;-63
2022/01/19 13:41:17;;;;;;;17.15;6.25;;;18.60;50.90;;;;;;4398773;32;20304;-63
2022/01/19 13:43:42;;;;;;;15.25;6.63;;;18.60;51.00;;;;;;4399125;32;20107;-63
2022/01/19 13:46:16;;;;;;;12.77;5.95;;;18.60;51.00;;;;;;4399207;32;20082;-63
2022/01/19 13:48:45;;;;;;;13.30;6.32;;;18.60;51.00;;;;;;4385756;32;20063;-63
2022/01/19 13:51:14;;;;;;;11.20;6.38;;;18.50;50.90;;;;;;4398482;32;20121;-63
2022/01/19 13:53:43;;;;;;;16.08;6.50;;;18.50;50.80;;;;;;4399330;32;20101;-62
2022/01/19 13:56:14;;;;;;;9.98;6.40;;;18.50;50.80;;;;;;4398309;32;20221;-64
2022/01/19 13:58:41;;;;;;;14.00;6.57;;;18.50;50.90;;;;;;4399400;32;20088;-63
2022/01/19 14:01:13;;;;;;;16.45;5.95;;;18.50;51.00;;;;;;4398374;32;20094;-64
2022/01/19 14:03:51;;;;;;;14.32;5.75;;;18.50;51.00;;;;;;4399503;32;20152;-64
2022/01/19 14:06:32;;;;;;;9.82;5.25;;;18.50;51.00;;;;;;4398197;32;20169;-63
2022/01/19 14:09:29;;;;;;;11.68;5.32;;;18.50;51.10;;;;;;4398877;32;20545;-64
2022/01/19 14:12:13;;;;;;;9.57;5.00;;;18.50;51.10;;;;;;4392702;32;20220;-64
2022/01/19 14:14:48;;;;;;;11.65;5.18;;;18.50;51.10;;;;;;4398834;32;20534;-64
2022/01/19 14:17:27;;;;;;;13.77;6.32;;;18.50;51.10;;;;;;4398369;32;20105;-64
2022/01/19 14:19:53;;;;;;;10.23;4.90;;;18.40;51.00;;;;;;4398650;32;20402;-64
2022/01/19 14:22:19;;;;;;;13.38;5.57;;;18.40;51.00;;;;;;4397852;32;20162;-64
2022/01/19 14:24:45;;;;;;;11.77;5.45;;;18.40;51.00;;;;;;4398846;32;20137;-63
2022/01/19 14:27:34;;;;;;;12.45;5.30;;;18.40;51.00;;;;;;4398540;32;20225;-64
2022/01/19 14:30:12;;;;;;;10.02;5.10;;;18.40;50.80;;;;;;4398993;32;20075;-63
2022/01/19 14:33:03;;;;;;;9.98;5.07;;;18.40;50.80;;;;;;4384500;32;20083;-63
2022/01/19 14:35:37;;;;;;;10.27;5.97;;;18.30;50.80;;;;;;4398376;32;20079;-64
2022/01/19 14:38:24;;;;;;;10.40;5.22;;;18.30;50.90;;;;;;4398503;32;20217;-64
2022/01/19 14:40:52;;;;;;;11.68;5.50;;;18.30;50.50;;;;;;4398148;32;20565;-64
2022/01/19 14:43:24;;;;;;;9.77;5.15;;;18.30;50.80;;;;;;4398075;32;20189;-64
2022/01/19 14:46:02;;;;;;;11.32;5.60;;;18.30;50.80;;;;;;4398415;32;20090;-64
2022/01/19 14:48:41;;;;;;;14.18;5.32;;;18.30;50.80;;;;;;4384365;32;20110;-64
2022/01/19 14:51:28;;;;;;;8.95;4.90;;;18.30;50.80;;;;;;4398195;32;20098;-64
2022/01/19 14:53:55;;;;;;;10.63;5.07;;;18.30;50.80;;;;;;4398034;32;20233;-64
2022/01/19 14:56:22;;;;;;;9.60;4.93;;;18.20;50.80;;;;;;4397186;32;20110;-64
2022/01/19 14:59:09;;;;;;;11.02;4.95;;;18.30;50.90;;;;;;4398001;32;20095;-64
2022/01/19 15:01:38;;;;;;;12.05;4.85;;;18.20;50.90;;;;;;4398026;32;20217;-64